createdAt,value
2022-09-17T00:03:36.754Z,7.60
2022-09-17T00:08:41.760Z,11.18
2022-09-17T00:13:45.106Z,8.63
2022-09-17T00:18:48.179Z,13.88
2022-09-17T00:23:55.434Z,8.98
2022-09-17T00:28:59.714Z,10.07
2022-09-17T00:34:05.186Z,13.80
2022-09-17T00:44:39.606Z,7.85
2022-09-17T00:49:43.355Z,10.13
2022-09-17T00:54:52.942Z,7.90
2022-09-17T00:59:56.623Z,8.07
2022-09-17T01:04:59.800Z,14.38
2022-09-17T01:10:14.818Z,15.10
2022-09-17T01:15:26.031Z,13.32
2022-09-17T01:20:58.447Z,9.07
2022-09-17T01:26:20.252Z,9.35
2022-09-17T01:31:32.513Z,8.63
2022-09-17T01:37:01.984Z,5.05
2022-09-17T01:42:17.356Z,5.60
2022-09-17T01:47:24.549Z,12.90
2022-09-17T01:52:29.106Z,10.38
2022-09-17T01:57:36.709Z,13.30
2022-09-17T02:02:46.556Z,7.60
2022-09-17T02:07:53.435Z,9.30
2022-09-17T02:13:01.328Z,11.27
2022-09-17T02:18:08.846Z,12.02
2022-09-17T02:23:17.030Z,6.45
2022-09-17T02:28:28.009Z,10.55
2022-09-17T02:33:34.781Z,12.23
2022-09-17T02:38:41.281Z,6.68
2022-09-17T02:43:53.344Z,15.18
2022-09-17T02:49:18.333Z,6.70
2022-09-17T02:54:28.608Z,12.00
2022-09-17T02:59:37.878Z,9.82
2022-09-17T03:04:43.869Z,7.85
2022-09-17T03:09:46.882Z,8.98
2022-09-17T03:14:49.909Z,10.90
2022-09-17T03:19:54.345Z,14.25
2022-09-17T03:24:57.567Z,9.45
2022-09-17T03:30:00.577Z,9.05
2022-09-17T03:35:05.356Z,7.82
2022-09-17T03:40:08.921Z,10.02
2022-09-17T03:45:12.057Z,18.85
2022-09-17T03:50:16.563Z,6.32
2022-09-17T03:55:19.623Z,9.07
2022-09-17T04:00:22.743Z,11.57
2022-09-17T04:05:27.357Z,8.23
2022-09-17T04:10:30.396Z,13.30
2022-09-17T04:15:33.411Z,6.38
2022-09-17T04:20:38.294Z,13.32
2022-09-17T04:25:42.062Z,20.73
2022-09-17T04:30:45.639Z,11.02
2022-09-17T04:35:50.027Z,14.40
2022-09-17T04:40:53.542Z,12.30
2022-09-17T04:45:56.621Z,13.25
2022-09-17T04:51:00.988Z,10.68
2022-09-17T04:56:04.302Z,9.48
2022-09-17T05:01:08.306Z,14.80
2022-09-17T05:06:12.680Z,12.48
2022-09-17T05:11:15.659Z,11.40
2022-09-17T05:16:18.818Z,9.77
2022-09-17T05:21:23.353Z,9.90
2022-09-17T05:26:26.454Z,18.77
2022-09-17T05:31:29.545Z,12.27
2022-09-17T05:36:34.023Z,14.88
2022-09-17T05:41:37.272Z,11.30
2022-09-17T05:46:40.349Z,11.18
2022-09-17T05:51:44.861Z,17.95
2022-09-17T05:56:48.149Z,14.55
2022-09-17T06:01:51.253Z,23.15
2022-09-17T06:06:55.684Z,14.63
2022-09-17T06:11:58.767Z,17.55
2022-09-17T06:17:01.824Z,22.25
2022-09-17T06:22:06.329Z,21.65
2022-09-17T06:27:09.368Z,12.03
2022-09-17T06:32:15.521Z,19.42
2022-09-17T06:37:19.864Z,24.85
2022-09-17T06:42:23.253Z,18.27
2022-09-17T06:47:27.560Z,16.88
2022-09-17T06:52:31.969Z,13.70
2022-09-17T06:57:35.160Z,11.70
2022-09-17T07:02:38.254Z,18.23
2022-09-17T07:07:42.562Z,16.45
2022-09-17T07:12:49.669Z,14.65
2022-09-17T07:17:53.478Z,17.15
2022-09-17T07:22:58.433Z,7.20
2022-09-17T07:28:03.489Z,12.23
2022-09-17T07:33:06.495Z,15.65
2022-09-17T07:38:10.966Z,12.20
2022-09-17T07:43:15.272Z,17.47
2022-09-17T07:48:18.343Z,15.85
2022-09-17T07:53:24.398Z,15.20
2022-09-17T07:58:29.956Z,16.55
2022-09-17T08:08:39.424Z,8.95
2022-09-17T08:13:42.846Z,11.43
2022-09-17T08:18:47.196Z,8.43
2022-09-17T08:23:51.581Z,12.88
2022-09-17T08:28:56.389Z,15.50
2022-09-17T08:33:59.924Z,6.78
2022-09-17T08:39:04.434Z,11.90
2022-09-17T08:44:19.807Z,7.27
2022-09-17T08:49:33.399Z,9.63
2022-09-17T08:54:45.026Z,13.68
2022-09-17T08:59:52.695Z,11.93
2022-09-17T09:05:02.542Z,12.93
2022-09-17T09:10:14.097Z,6.82
2022-09-17T09:15:26.160Z,11.82
2022-09-17T09:20:36.795Z,8.90
2022-09-17T09:25:52.033Z,7.60
2022-09-17T09:36:05.705Z,4.72
2022-09-17T09:41:13.162Z,6.88
2022-09-17T09:46:45.570Z,16.52
2022-09-17T09:52:02.904Z,12.23
2022-09-17T09:57:12.291Z,15.43
2022-09-17T10:02:15.666Z,6.32
2022-09-17T10:07:18.872Z,9.48
2022-09-17T10:12:23.215Z,6.75
2022-09-17T10:17:27.530Z,6.93
2022-09-17T10:22:33.218Z,6.93
2022-09-17T10:27:37.820Z,9.82
2022-09-17T10:32:41.221Z,6.60
2022-09-17T10:37:45.717Z,5.22
2022-09-17T10:42:51.890Z,10.60
2022-09-17T10:47:57.091Z,6.55
2022-09-17T10:58:21.817Z,6.57
2022-09-17T11:03:48.888Z,9.55
2022-09-17T11:09:00.912Z,4.82
2022-09-17T11:14:15.719Z,5.93
2022-09-17T11:19:27.131Z,5.85
2022-09-17T11:24:49.923Z,3.53
2022-09-17T11:30:05.240Z,14.05
2022-09-17T11:35:11.751Z,9.10
2022-09-17T11:40:22.600Z,6.10
2022-09-17T11:45:33.334Z,8.40
2022-09-17T11:50:41.181Z,5.30
2022-09-17T11:55:49.257Z,7.25
2022-09-17T12:01:01.187Z,7.45
2022-09-17T12:06:09.914Z,3.78
2022-09-17T12:11:19.161Z,5.03
2022-09-17T12:16:26.573Z,4.97
2022-09-17T12:21:35.286Z,1.45
2022-09-17T12:27:03.892Z,4.60
2022-09-17T12:32:26.988Z,5.72
2022-09-17T12:37:42.583Z,4.68
2022-09-17T12:43:02.866Z,2.60
2022-09-17T12:48:27.169Z,3.42
2022-09-17T12:53:35.835Z,4.80
2022-09-17T12:59:05.182Z,7.47
2022-09-17T13:04:38.148Z,5.13
2022-09-17T13:10:12.751Z,4.05
2022-09-17T13:15:42.389Z,3.83
2022-09-17T13:21:02.036Z,3.72
2022-09-17T13:26:06.857Z,2.55
2022-09-17T13:31:11.939Z,2.47
2022-09-17T13:41:36.769Z,4.68
2022-09-17T13:46:40.282Z,6.38
2022-09-17T13:51:47.888Z,3.53
2022-09-17T13:57:07.923Z,6.88
2022-09-17T14:02:36.483Z,4.38
2022-09-17T14:07:47.438Z,4.35
2022-09-17T14:13:25.230Z,4.15
2022-09-17T14:18:58.769Z,4.55
2022-09-17T14:24:04.520Z,4.40
2022-09-17T14:29:19.877Z,4.85
2022-09-17T14:34:25.711Z,3.83
2022-09-17T14:39:36.329Z,3.15
2022-09-17T14:44:49.941Z,4.28
2022-09-17T14:49:53.392Z,1.80
2022-09-17T14:55:10.082Z,0.25
2022-09-17T15:00:22.041Z,0.40
2022-09-17T15:05:28.481Z,0.52
2022-09-17T15:10:31.797Z,1.35
2022-09-17T15:15:36.804Z,0.47
2022-09-17T15:20:40.553Z,2.05
2022-09-17T15:25:45.185Z,1.65
2022-09-17T15:30:52.022Z,2.20
2022-09-17T15:36:00.525Z,1.25
2022-09-17T15:41:30.185Z,2.42
2022-09-17T15:46:34.848Z,1.20
2022-09-17T15:51:38.166Z,2.53
2022-09-17T15:56:42.429Z,3.00
2022-09-17T16:01:56.615Z,3.22
2022-09-17T16:07:24.013Z,1.40
2022-09-17T16:12:30.761Z,2.15
2022-09-17T16:17:44.895Z,1.70
2022-09-17T16:22:48.352Z,0.90
2022-09-17T16:27:56.036Z,0.85
2022-09-17T16:33:03.570Z,4.22
2022-09-17T16:38:07.059Z,1.52
2022-09-17T16:43:10.775Z,2.00
2022-09-17T16:48:15.571Z,5.63
2022-09-17T16:53:18.684Z,2.23
2022-09-17T16:58:21.883Z,3.35
2022-09-17T17:03:27.074Z,2.25
2022-09-17T17:13:34.674Z,2.45
2022-09-17T17:18:41.685Z,3.05
2022-09-17T17:23:47.243Z,4.28
2022-09-17T17:28:50.482Z,4.07
2022-09-17T17:33:55.177Z,1.75
2022-09-17T17:38:58.711Z,11.17
2022-09-17T17:44:02.125Z,3.20
2022-09-17T17:49:07.402Z,3.05
2022-09-17T17:54:10.820Z,2.80
2022-09-17T17:59:14.334Z,2.90
2022-09-17T18:04:19.199Z,2.35
2022-09-17T18:09:22.291Z,1.38
2022-09-17T18:14:25.481Z,1.00
2022-09-17T18:19:29.955Z,3.13
2022-09-17T18:24:33.514Z,3.57
2022-09-17T18:29:39.494Z,3.47
2022-09-17T18:34:44.777Z,4.03
2022-09-17T18:40:04.485Z,2.95
2022-09-17T18:45:08.582Z,4.60
2022-09-17T18:50:14.689Z,2.75
2022-09-17T18:55:18.125Z,3.33
2022-09-17T19:00:22.483Z,2.30
2022-09-17T19:05:27.866Z,4.22
2022-09-17T19:10:31.449Z,12.13
2022-09-17T19:15:34.607Z,3.33
2022-09-17T19:20:40.361Z,1.98
2022-09-17T19:25:44.607Z,4.95
2022-09-17T19:30:48.916Z,0.80
2022-09-17T19:35:59.329Z,4.78
2022-09-17T19:41:05.143Z,2.70
2022-09-17T19:46:13.848Z,2.72
2022-09-17T19:51:20.130Z,3.65
2022-09-17T19:56:25.552Z,3.85
2022-09-17T20:01:29.517Z,2.70
2022-09-17T20:06:35.315Z,2.70
2022-09-17T20:11:40.648Z,4.78
2022-09-17T20:16:45.040Z,1.67
2022-09-17T20:21:49.589Z,3.50
2022-09-17T20:26:52.658Z,5.80
2022-09-17T20:31:55.766Z,3.28
2022-09-17T20:37:12.640Z,5.38
2022-09-17T20:42:16.802Z,7.70
2022-09-17T20:47:19.785Z,3.42
2022-09-17T20:52:24.228Z,8.75
2022-09-17T20:57:27.487Z,4.93
2022-09-17T21:02:33.063Z,5.10
2022-09-17T21:07:37.459Z,8.98
2022-09-17T21:12:40.606Z,5.68
2022-09-17T21:17:45.377Z,9.52
2022-09-17T21:22:49.699Z,6.03
2022-09-17T21:27:52.688Z,6.95
2022-09-17T21:32:55.787Z,7.35
2022-09-17T21:38:00.192Z,7.57
2022-09-17T21:43:03.347Z,6.88
2022-09-17T21:48:06.355Z,5.68
2022-09-17T21:53:10.700Z,4.75
2022-09-17T21:58:14.035Z,5.13
2022-09-17T22:03:17.091Z,6.20
2022-09-17T22:08:21.581Z,2.53
2022-09-17T22:13:24.751Z,8.80
2022-09-17T22:18:28.099Z,4.18
2022-09-17T22:23:32.829Z,8.07
2022-09-17T22:28:36.813Z,6.95
2022-09-17T22:33:41.810Z,5.68
2022-09-17T22:38:48.646Z,6.50
2022-09-17T22:43:53.325Z,5.43
2022-09-17T22:48:57.356Z,5.43
2022-09-17T22:54:01.877Z,4.53
2022-09-17T22:59:05.505Z,3.43
2022-09-17T23:04:08.610Z,10.75
2022-09-17T23:09:14.156Z,7.18
2022-09-17T23:14:17.263Z,10.02
2022-09-17T23:19:20.319Z,3.95
2022-09-17T23:24:24.887Z,4.68
2022-09-17T23:29:27.928Z,8.43
2022-09-17T23:34:31.018Z,5.75
2022-09-17T23:39:35.413Z,5.13
2022-09-17T23:44:38.456Z,6.03
2022-09-17T23:49:41.434Z,3.92
2022-09-17T23:54:45.841Z,8.68
2022-09-17T23:59:48.984Z,4.63
